Tiempo atmosférico en la estación meteorológica de Mutriku, Gipuzkoa (150 m.)



Fecha
DESCASC
Temp. máxima en grados centígrados (hora)
DESCASC
Temp. mínima en grados centígrados (hora)
DESCASC
Temp. media en grados centígrados
DESCASC
Racha de viento máxima en m/sg (hora)
DESCASC
Velocidad máxima media en intervalos de 10 minutos(hora)
DESCASC
Precipitaciones diarias en mm
DESCASC
Precipitaciones de 00:00 a 06:00 en mm
DESCASC
Precipitaciones de 06:00 a 12:00 en mm
DESCASC
Precipitaciones de 12:00 a 18:00 en mm
DESCASC
Precipitaciones de 18:00 a 24:00 en mm
DESCASC
23-06-2019 26.5 (05:40) 17.1 (23:50) 21.8 10.28 (06:10) 5.28 (08:00) 0 0 0 0 0
22-06-2019 25 (18:50) 13.1 (05:40) 19.1 6.11 (15:50) 3.89 (15:00) 0 0 0 0 0
21-06-2019 18.6 (15:20) 12.8 (08:00) 15.7 5 (00:50) 2.78 (07:40) 21.6 14 7.6 0 0
20-06-2019 18.2 (15:10) 14.6 (00:00) 16.4 6.11 (03:50) 3.06 (00:10) 2.8 0 2.8 0 0
19-06-2019 22.6 (11:20) 14.7 (00:00) 18.7 5.83 (17:20) 3.61 (10:30) 0 0 0 0 0
18-06-2019 28.6 (17:10) 15.3 (00:00) 22 15 (19:00) 9.17 (18:30) 0 0 0 0 0
17-06-2019 22.7 (16:20) 13.9 (00:00) 18.3 10.28 (19:40) 6.39 (19:40) 0 0 0 0 0
16-06-2019 20.5 (18:00) 12.6 (00:00) 16.6 5.28 (12:30) 3.61 (11:10) 0 0 0 0 0
15-06-2019 19.5 (20:00) 11.9 (00:00) 15.7 4.72 (06:00) 3.33 (06:00) 0 0 0 0 0
14-06-2019 15.5 (12:10) 11.7 (00:00) 13.6 6.39 (18:10) 3.06 (18:20) 0.8 0 0 0 0.8
13-06-2019 17.5 (14:30) 11.1 (00:00) 14.3 6.39 (21:10) 3.89 (22:20) 0 0 0 0 0
12-06-2019 17.5 (13:40) 11.9 (00:00) 14.7 14.17 (02:40) 8.61 (02:40) 0 0 0 0 0
11-06-2019 15.7 (16:40) 9.8 (00:00) 12.8 13.61 (15:20) 7.78 (15:20) 8 5.2 2 0.8 0
10-06-2019 17 (13:40) 11.5 (00:00) 14.3 6.39 (00:30) 3.89 (00:40) 0.2 0 0 0 0.2
09-06-2019 18 (10:50) 12.6 (00:00) 15.3 10.83 (15:40) 6.39 (16:30) 0.8 0 0 0 0.8
08-06-2019 18.3 (15:20) 11.7 (00:00) 15 6.94 (12:10) 3.89 (11:30) 0 0 0 0 0
07-06-2019 22.1 (00:00) 12.5 (00:00) 17.3 17.78 (03:30) 10.28 (02:10) 0.6 0.4 0.2 0 0
06-06-2019 25.1 (19:20) 11.2 (00:00) 18.2 13.06 (19:10) 5.83 (23:30) 0 0 0 0 0
05-06-2019 16.5 (18:00) 11 (00:00) 13.8 11.11 (18:10) 6.11 (18:10) 21 0.4 12.4 8.2 0
04-06-2019 19.5 (12:30) 13.3 (00:00) 16.4 12.78 (17:50) 8.06 (17:50) 0 0 0 0 0
03-06-2019 21 (17:20) 15.1 (00:00) 18.1 6.11 (08:50) 4.17 (08:50) 0 0 0 0 0
02-06-2019 25 (10:00) 16.9 (00:00) 20.9 6.39 (20:10) 4.17 (05:30) 0 0 0 0 0
01-06-2019 29.9 (13:20) 18.4 (00:00) 24.1 6.11 (14:40) 5 (14:40) 0 0 0 0 0
31-05-2019 24 (17:30) 14.5 (00:00) 19.3 5.83 (15:00) 3.89 (14:50) 0 0 0 0 0
30-05-2019 20.6 (19:10) 11.5 (00:00) 16.1 5 (13:20) 3.61 (13:20) 0 0 0 0 0
29-05-2019 17.6 (20:00) 11.7 (00:00) 14.7 9.17 (03:20) 5.56 (03:20) 1.4 1.4 0 0 0
28-05-2019 15.8 (12:20) 11.6 (00:00) 13.7 12.5 (19:00) 7.5 (19:10) 1.8 0 0.2 1.6 0

Gráficas

Temp. máximas Temp. mínimas Temp. medias Precipitaciones Rachas de viento máximas Velocidades máximas media en intervalos de 10 minutos

Datos horarios

Fecha y hora oficial Temperatura (ºC) Velocidad del viento (km/h) Dirección del viento Racha (km/h) Dirección de racha Precipitación (mm) Presión (hPa) Tendencia (hPa) Humedad (%)
2019-06-26 23:00:00 20 19 Noroeste 33 Noroeste 0 -- -- 86
2019-06-26 22:00:00 21.5 23 Noroeste 45 Noroeste 0 -- -- 85
2019-06-26 21:00:00 28.1 6 Este 11 Este 0 -- -- 66
2019-06-26 20:00:00 28.1 2 Norte 9 Nordeste 0 -- -- 67
2019-06-26 19:00:00 29.9 6 Este 23 Este 0 -- -- 61
2019-06-26 18:00:00 30.7 13 Este 20 Este 0 -- -- 58
2019-06-26 17:00:00 29.7 9 Este 24 Sudeste 0 -- -- 61
2019-06-26 16:00:00 28.2 10 Este 17 Este 0 -- -- 64
2019-06-26 15:00:00 27.4 6 Este 22 Este 0 -- -- 65
2019-06-26 14:00:00 28.5 16 Este 31 Este 0 -- -- 60
2019-06-26 13:00:00 25.8 16 Este 31 Sudeste 0 -- -- 73
2019-06-26 12:00:00 22.3 17 Este 24 Este 0 -- -- 84
2019-06-26 11:00:00 19.9 12 Este 21 Este 0 -- -- 90
2019-06-26 10:00:00 19.3 8 Este 19 Este 0 -- -- 92
2019-06-26 09:00:00 18.5 8 Este 15 Este 0 -- -- 95
2019-06-26 08:00:00 18.2 6 Este 11 Este 0 -- -- 95
2019-06-26 07:00:00 17.6 3 Sudoeste 9 Sudoeste 0 -- -- 95
2019-06-26 06:00:00 17.7 2 Oeste 6 Sudoeste 0 -- -- 96
2019-06-26 05:00:00 17.7 2 Sudoeste 9 Oeste 0 -- -- 96
2019-06-26 04:00:00 17.7 0 Calma 4 Nordeste 0 -- -- 96
2019-06-26 03:00:00 17.6 0 Calma 13 Oeste 0 -- -- 96
2019-06-26 02:00:00 17.7 7 Noroeste 13 Noroeste 0 -- -- 95
2019-06-26 01:00:00 18 4 Noroeste 12 Noroeste 0 -- -- 94
2019-06-26 00:00:00 18 5 Oeste 12 Oeste 0 -- -- 94
2019-06-25 23:00:00 18 8 Noroeste 13 Noroeste 0 -- -- 93
2019-06-25 22:00:00 18.1 6 Oeste 8 Oeste 0 -- -- 92
2019-06-25 21:00:00 18.5 3 Noroeste 6 Oeste 0 -- -- 90
2019-06-25 20:00:00 19.2 2 Noroeste 9 Nordeste 0 -- -- 87
2019-06-25 19:00:00 19.8 3 Norte 9 Noroeste 0 -- -- 85
2019-06-25 18:00:00 20.1 2 Noroeste 10 Norte 0 -- -- 86
2019-06-25 17:00:00 19.7 4 Norte 9 Norte 0 -- -- 86
2019-06-25 16:00:00 20 3 Norte 9 Nordeste 0 -- -- 86
2019-06-25 15:00:00 20.2 6 Norte 12 Norte 0 -- -- 84
2019-06-25 14:00:00 20.9 5 Norte 11 Norte 0 -- -- 80
2019-06-25 13:00:00 20 6 Nordeste 10 Este 0 -- -- 81
2019-06-25 12:00:00 19.7 6 Nordeste 10 Este 0 -- -- 84
2019-06-25 11:00:00 20 5 Nordeste 9 Norte 0 -- -- 81
2019-06-25 10:00:00 19.3 5 Nordeste 9 Este 0 -- -- 80
2019-06-25 09:00:00 19.9 5 Este 9 Este 0 -- -- 78
2019-06-25 08:00:00 18.7 0 Calma 5 Sudeste 0 -- -- 83
2019-06-25 07:00:00 17.5 0 Calma 4 Sudoeste 0 -- -- 82
2019-06-25 06:00:00 17.3 0 Calma 9 Sudeste 0 -- -- 83
2019-06-25 05:00:00 17.3 3 Sudeste 7 Nordeste 0 -- -- 83
2019-06-25 04:00:00 17 5 Oeste 8 Sudoeste 0 -- -- 85
2019-06-25 03:00:00 17.4 4 Sudoeste 9 Sudoeste 0 -- -- 82
2019-06-25 02:00:00 17.6 2 Sudoeste 12 Sudoeste 0 -- -- 82
2019-06-25 01:00:00 17.8 7 Sudoeste 16 Sudoeste 0 -- -- 82
2019-06-25 00:00:00 17.7 11 Sudoeste 17 Sudoeste 0 -- -- 84
2019-06-24 23:00:00 17.7 12 Sudoeste 18 Sudoeste 0 -- -- 84
2019-06-24 22:00:00 18 10 Oeste 18 Oeste 0 -- -- 84
2019-06-24 21:00:00 18.8 11 Oeste 26 Oeste 0 -- -- 82
2019-06-24 20:00:00 19.4 13 Noroeste 33 Noroeste 0 -- -- 83
2019-06-24 19:00:00 19.3 13 Noroeste 30 Noroeste 0 -- -- 85
2019-06-24 18:00:00 18.9 5 Noroeste 20 Noroeste 0 -- -- 90
2019-06-24 17:00:00 18.8 8 Noroeste 17 Noroeste 0 -- -- 88
2019-06-24 16:00:00 20.4 4 Noroeste 10 Norte 0 -- -- 84
2019-06-24 15:00:00 20.5 5 Oeste 12 Sudeste 0 -- -- 85
2019-06-24 14:00:00 19.7 3 Este 13 Este 0 -- -- 85
2019-06-24 13:00:00 20.2 10 Este 15 Este 0 -- -- 83
2019-06-24 12:00:00 19.7 2 Noroeste 11 Noroeste 0 -- -- 85
2019-06-24 11:00:00 19.6 3 Noroeste 12 Noroeste 0 -- -- 83
2019-06-24 10:00:00 19 3 Noroeste 8 Oeste 0 -- -- 84
2019-06-24 09:00:00 18.4 3 Noroeste 7 Noroeste 0 -- -- 85
2019-06-24 08:00:00 17.4 3 Sudoeste 15 Sur 0 -- -- 90
2019-06-24 07:00:00 16.4 8 Sudoeste 13 Sur 0 -- -- 92
2019-06-24 06:00:00 16 4 Sudoeste 13 Oeste 0 -- -- 93
2019-06-24 05:00:00 16.2 10 Oeste 21 Oeste 0 -- -- 93
2019-06-24 04:00:00 16.5 12 Oeste 18 Oeste 0 -- -- 93
2019-06-24 03:00:00 16.7 9 Oeste 14 Noroeste 0 -- -- 94
2019-06-24 02:00:00 16.9 2 Sudoeste 6 Este 0 -- -- 93
2019-06-24 01:00:00 16.9 0 Calma 10 Este 0 -- -- 92
2019-06-24 00:00:00 17.2 0 Calma 8 Noroeste 0 -- -- 92
2019-06-23 23:00:00 17.3 6 Noroeste 13 Noroeste 0 -- -- 90
2019-06-23 22:00:00 18 6 Noroeste 12 Noroeste 0 -- -- 86
2019-06-23 21:00:00 18.7 7 Noroeste 11 Noroeste 0 -- -- 81
2019-06-23 20:00:00 19.7 4 Noroeste 9 Noroeste 0 -- -- 79
2019-06-23 19:00:00 20.9 2 Noroeste 9 Noroeste 0 -- -- 73
2019-06-23 18:00:00 20.6 4 Noroeste 10 Norte 0 -- -- 76
2019-06-23 17:00:00 21.4 5 Noroeste 14 Noroeste 0 -- -- 74
2019-06-23 16:00:00 21 6 Noroeste 13 Oeste 0 -- -- 75
2019-06-23 15:00:00 22.6 5 Norte 11 Nordeste 0 -- -- 68
2019-06-23 14:00:00 24.3 3 Norte 9 Noroeste 0 -- -- 57
2019-06-23 13:00:00 23.6 5 Este 17 Sudeste 0 -- -- 64
2019-06-23 12:00:00 23.6 16 Este 21 Este 0 -- -- 65
2019-06-23 11:00:00 23.5 6 Este 15 Sudeste 0 -- -- 68
2019-06-23 10:00:00 22 7 Este 12 Este 0 -- -- 71
2019-06-23 09:00:00 20.5 4 Oeste 36 Oeste 0 -- -- 71
2019-06-23 08:00:00 25 19 Oeste 32 Sur 0 -- -- 51
2019-06-23 07:00:00 26 16 Sur 37 Sur 0 -- -- 47
2019-06-23 06:00:00 26.5 16 Sur 32 Sur 0 -- -- 44
2019-06-23 05:00:00 25.8 12 Sur 29 Sur 0 -- -- 46
2019-06-23 04:00:00 19.7 5 Nordeste 12 Este 0 -- -- 83
2019-06-23 03:00:00 20.2 3 Nordeste 9 Este 0 -- -- 81
2019-06-23 02:00:00 20.8 2 Oeste 4 Este 0 -- -- 78
2019-06-23 01:00:00 21.3 3 Este 8 Sudeste 0 -- -- 76
2019-06-23 00:00:00 20.9 2 Este 8 Oeste 0 -- -- 77
2019-06-22 23:00:00 20.8 5 Oeste 7 Oeste 0 -- -- 76
2019-06-22 22:00:00 21.2 0 Calma 6 Este 0 -- -- 74
2019-06-22 21:00:00 22.7 2 Sudeste 9 Este 0 -- -- 69
2019-06-22 20:00:00 24.3 5 Este 14 Este 0 -- -- 65
2019-06-22 19:00:00 24.8 10 Este 17 Sudeste 0 -- -- 64
2019-06-22 18:00:00 23.2 8 Este 22 Este 0 -- -- 69
2019-06-22 17:00:00 23.9 11 Este 21 Este 0 -- -- 68
2019-06-22 16:00:00 23.3 13 Este 22 Este 0 -- -- 69
2019-06-22 15:00:00 22.6 14 Este 21 Este 0 -- -- 71
2019-06-22 14:00:00 21 10 Este 19 Este 0 -- -- 74
2019-06-22 13:00:00 20 12 Este 19 Este 0 -- -- 72
2019-06-22 12:00:00 18.8 9 Este 17 Nordeste 0 -- -- 77
2019-06-22 11:00:00 18.4 10 Este 18 Sudeste 0 -- -- 74
2019-06-22 10:00:00 17.6 9 Este 19 Este 0 -- -- 71
2019-06-22 09:00:00 16.8 10 Este 22 Este 0 -- -- 74
2019-06-22 08:00:00 14.9 14 Sudeste 21 Este 0 -- -- 79
2019-06-22 07:00:00 13.2 8 Sudeste 13 Este 0 -- -- 83
2019-06-22 06:00:00 13.1 4 Sudeste 6 Sudeste 0 -- -- 76
2019-06-22 05:00:00 13.3 0 Calma 8 Sur 0 -- -- 76
2019-06-22 04:00:00 13.4 2 Sur 5 Sur 0 -- -- 78
2019-06-22 03:00:00 13.5 6 Sudoeste 9 Sudoeste 0 -- -- 79
2019-06-22 02:00:00 13.3 6 Sudoeste 10 Sur 0 -- -- 84
2019-06-22 01:00:00 13.6 7 Sur 11 Sur 0 -- -- 85
2019-06-22 00:00:00 14 4 Sur 5 Sur 0 -- -- 83
2019-06-21 23:00:00 14.5 2 Sudoeste 3 Sudoeste 0 -- -- 80
2019-06-21 22:00:00 16.1 0 Calma 4 Norte 0 -- -- 74
2019-06-21 21:00:00 17.8 3 Nordeste 7 Nordeste 0 -- -- 71
2019-06-21 20:00:00 18.5 3 Norte 8 Oeste 0 -- -- 70
2019-06-21 19:00:00 18.3 3 Norte 8 Noroeste 0 -- -- 71
2019-06-21 18:00:00 17.9 3 Norte 13 Noroeste 0 -- -- 70
2019-06-21 17:00:00 17.7 3 Norte 13 Nordeste 0 -- -- 76
2019-06-21 16:00:00 17.7 4 Nordeste 14 Nordeste 0 -- -- 77
2019-06-21 15:00:00 17.9 5 Norte 12 Nordeste 0 -- -- 76
2019-06-21 14:00:00 17.7 5 Norte 11 Norte 0 -- -- 72
2019-06-21 13:00:00 17.9 5 Norte 10 Norte 0 -- -- 75
2019-06-21 12:00:00 16.8 4 Norte 11 Norte 0 -- -- 75
2019-06-21 11:00:00 15.7 4 Noroeste 13 Oeste 0 -- -- 87
2019-06-21 10:00:00 14.1 7 Oeste 14 Oeste 0 -- -- 95
2019-06-21 09:00:00 13.3 4 Oeste 13 Sudoeste 0.4 -- -- 96
2019-06-21 08:00:00 12.8 7 Sudoeste 15 Este 4.8 -- -- 96
2019-06-21 07:00:00 13 8 Sudoeste 12 Sudoeste 2.4 -- -- 96
2019-06-21 06:00:00 13.3 2 Sudoeste 3 Sudoeste 0.4 -- -- 96
2019-06-21 05:00:00 13.5 2 Oeste 6 Noroeste 2.4 -- -- 96
2019-06-21 04:00:00 13.6 2 Noroeste 8 Oeste 4.4 -- -- 95
2019-06-21 03:00:00 14 0 Calma 15 Este 4.4 -- -- 94
2019-06-21 02:00:00 14.4 7 Este 17 Este 2.4 -- -- 91
2019-06-21 01:00:00 15.3 9 Nordeste 18 Nordeste 0 -- -- 89
2019-06-21 00:00:00 15.7 5 Nordeste 21 Nordeste 0 -- -- 90
2019-06-20 23:00:00 16.1 4 Sudoeste 9 Sudoeste 0 -- -- 88
2019-06-20 22:00:00 16.2 7 Noroeste 15 Noroeste 0 -- -- 88
2019-06-20 21:00:00 16.9 0 Calma 14 Nordeste 0 -- -- 86
2019-06-20 20:00:00 17.3 4 Este 14 Nordeste 0 -- -- 84
2019-06-20 19:00:00 17.9 3 Sudeste 12 Nordeste 0 -- -- 85
2019-06-20 18:00:00 17.9 6 Nordeste 13 Nordeste 0 -- -- 83
2019-06-20 17:00:00 17.3 5 Nordeste 9 Nordeste 0 -- -- 85
2019-06-20 16:00:00 18.1 6 Nordeste 9 Nordeste 0 -- -- 82
2019-06-20 15:00:00 18 5 Norte 10 Noroeste 0 -- -- 83
2019-06-20 14:00:00 17.9 6 Nordeste 10 Nordeste 0 -- -- 85
2019-06-20 13:00:00 17.3 4 Norte 6 Norte 0 -- -- 86
2019-06-20 12:00:00 16.9 3 Nordeste 5 Norte 0 -- -- 90
2019-06-20 11:00:00 16.3 3 Este 6 Sudeste 0 -- -- 96
2019-06-20 10:00:00 14.8 3 Sudoeste 6 Oeste 0 -- -- 96
2019-06-20 09:00:00 14.6 3 Oeste 10 Oeste 0.8 -- -- 96
2019-06-20 08:00:00 14.8 5 Noroeste 13 Oeste 1.6 -- -- 96
2019-06-20 07:00:00 15.4 3 Noroeste 17 Noroeste 0.4 -- -- 94
2019-06-20 06:00:00 15.9 3 Oeste 13 Noroeste 0 -- -- 93
2019-06-20 05:00:00 15.9 6 Oeste 13 Noroeste 0 -- -- 94
2019-06-20 04:00:00 15.9 7 Noroeste 22 Oeste 0 -- -- 93
2019-06-20 03:00:00 16.1 10 Oeste 19 Oeste 0 -- -- 92
2019-06-20 02:00:00 16.3 7 Oeste 11 Oeste 0 -- -- 90
2019-06-20 01:00:00 16.6 4 Oeste 17 Oeste 0 -- -- 88
2019-06-20 00:00:00 16.7 8 Oeste 14 Oeste 0 -- -- 88
2019-06-19 23:00:00 17.6 0 Calma 3 Nordeste 0 -- -- 83
2019-06-19 22:00:00 17.8 0 Calma 8 Este 0 -- -- 81
2019-06-19 21:00:00 18.3 4 Este 11 Este 0 -- -- 78
2019-06-19 20:00:00 19.1 7 Este 16 Nordeste 0 -- -- 75
2019-06-19 19:00:00 20.1 11 Este 15 Nordeste 0 -- -- 71
2019-06-19 18:00:00 21.3 10 Este 21 Este 0 -- -- 69
2019-06-19 17:00:00 21.3 8 Nordeste 15 Este 0 -- -- 68
2019-06-19 16:00:00 21.8 8 Este 13 Este 0 -- -- 68
2019-06-19 15:00:00 20.5 4 Nordeste 9 Nordeste 0 -- -- 70
2019-06-19 14:00:00 21.1 5 Nordeste 12 Norte 0 -- -- 69
2019-06-19 13:00:00 20.2 5 Nordeste 8 Nordeste 0 -- -- 74
2019-06-19 12:00:00 19.1 3 Noroeste 17 Este 0 -- -- 79
2019-06-19 11:00:00 22.2 10 Este 19 Sudeste 0 -- -- 59
2019-06-19 10:00:00 19.8 12 Sudeste 19 Sudeste 0 -- -- 78
2019-06-19 09:00:00 16.9 9 Este 13 Este 0 -- -- 88
2019-06-19 08:00:00 16.4 0 Calma 16 Este 0 -- -- 84
2019-06-19 07:00:00 15.6 10 Sudeste 18 Sudeste 0 -- -- 84
2019-06-19 06:00:00 14.8 4 Este 12 Este 0 -- -- 90
2019-06-19 05:00:00 15.1 0 Calma 10 Oeste 0 -- -- 89
2019-06-19 04:00:00 14.8 6 Sudoeste 11 Oeste 0 -- -- 91
2019-06-19 03:00:00 14.9 4 Oeste 14 Este 0 -- -- 93
2019-06-19 02:00:00 15.4 11 Sudeste 15 Sudeste 0 -- -- 93
2019-06-19 01:00:00 16.3 6 Este 14 Sudoeste 0 -- -- 85
2019-06-19 00:00:00 15.3 3 Noroeste 9 Noroeste 0 -- -- 93
2019-06-18 23:00:00 15.7 4 Este 13 Este 0 -- -- 92
2019-06-18 22:00:00 16.5 9 Sudeste 13 Sudeste 0 -- -- 88
2019-06-18 21:00:00 17.6 4 Oeste 34 Noroeste 0 -- -- 86
2019-06-18 20:00:00 17 21 Noroeste 45 Noroeste 0 -- -- 88
2019-06-18 19:00:00 17.6 30 Noroeste 54 Noroeste 0 -- -- 87
2019-06-18 18:00:00 19.1 24 Noroeste 43 Oeste 0 -- -- 81
2019-06-18 17:00:00 28.4 12 Este 27 Sudeste 0 -- -- 55
2019-06-18 16:00:00 27 15 Sudeste 26 Sudeste 0 -- -- 52
2019-06-18 15:00:00 27.1 17 Este 32 Este 0 -- -- 50
2019-06-18 14:00:00 24.5 13 Este 19 Sudeste 0 -- -- 61
2019-06-18 13:00:00 24.5 10 Este 15 Este 0 -- -- 69
2019-06-18 12:00:00 21.7 4 Este 15 Este 0 -- -- 77
2019-06-18 11:00:00 23.4 13 Este 19 Sudeste 0 -- -- 66
2019-06-18 10:00:00 20.8 3 Nordeste 8 Este 0 -- -- 73
2019-06-18 09:00:00 19.6 2 Nordeste 6 Nordeste 0 -- -- 77
2019-06-18 08:00:00 17.6 0 Calma 4 Este 0 -- -- 86
2019-06-18 07:00:00 16 0 Calma 7 Sudoeste 0 -- -- 89
2019-06-18 06:00:00 15.5 2 Oeste 10 Sudeste 0 -- -- 90
2019-06-18 05:00:00 15.9 6 Sudeste 14 Sur 0 -- -- 90
2019-06-18 04:00:00 15.7 4 Sur 10 Sudoeste 0 -- -- 92
2019-06-18 03:00:00 15.8 4 Sudoeste 9 Sudoeste 0 -- -- 93
2019-06-18 02:00:00 15.9 0 Calma 9 Noroeste 0 -- -- 93
2019-06-18 01:00:00 16.2 3 Oeste 9 Sudeste 0 -- -- 92
2019-06-18 00:00:00 16.2 3 Este 7 Este 0 -- -- 92
2019-06-17 23:00:00 16.2 3 Noroeste 8 Sudeste 0 -- -- 92
2019-06-17 22:00:00 16.2 3 Noroeste 23 Noroeste 0 -- -- 92
2019-06-17 21:00:00 16.4 14 Noroeste 36 Oeste 0 -- -- 92
2019-06-17 20:00:00 16.5 22 Noroeste 37 Noroeste 0 -- -- 92
2019-06-17 19:00:00 18.9 9 Noroeste 18 Noroeste 0 -- -- 84
2019-06-17 18:00:00 20.7 9 Este 12 Este 0 -- -- 77
2019-06-17 17:00:00 21.9 8 Este 14 Este 0 -- -- 74
2019-06-17 16:00:00 22.2 10 Este 17 Este 0 -- -- 72
2019-06-17 15:00:00 21.8 10 Este 19 Este 0 -- -- 75
2019-06-17 14:00:00 20.5 12 Este 18 Este 0 -- -- 76
2019-06-17 13:00:00 19.4 12 Este 20 Nordeste 0 -- -- 81
2019-06-17 12:00:00 19.8 10 Este 18 Este 0 -- -- 80
2019-06-17 11:00:00 18 12 Nordeste 17 Este 0 -- -- 83
2019-06-17 10:00:00 18.4 9 Este 16 Este 0 -- -- 81
2019-06-17 09:00:00 17.4 6 Este 8 Nordeste 0 -- -- 83
2019-06-17 08:00:00 15.3 0 Calma 4 Este 0 -- -- 91
2019-06-17 07:00:00 14.2 0 Calma 12 Sudoeste 0 -- -- 92
2019-06-17 06:00:00 14.2 8 Sudoeste 15 Sudoeste 0 -- -- 91
2019-06-17 05:00:00 14.4 7 Sudoeste 16 Sudoeste 0 -- -- 91
2019-06-17 04:00:00 14.5 11 Sudoeste 20 Sudoeste 0 -- -- 91
2019-06-17 03:00:00 14.9 15 Sudoeste 22 Sudoeste 0 -- -- 90
2019-06-17 02:00:00 15.1 10 Sudoeste 15 Sudoeste 0 -- -- 89
2019-06-17 01:00:00 15.3 8 Oeste 15 Oeste 0 -- -- 89
2019-06-17 00:00:00 15.8 12 Oeste 15 Oeste 0 -- -- 88
2019-06-16 23:00:00 16.2 8 Oeste 16 Noroeste 0 -- -- 86
2019-06-16 22:00:00 16.8 11 Noroeste 17 Noroeste 0 -- -- 84
2019-06-16 21:00:00 18.7 3 Noroeste 8 Este 0 -- -- 77
2019-06-16 20:00:00 20 3 Este 9 Nordeste 0 -- -- 71
2019-06-16 19:00:00 20.4 4 Este 12 Este 0 -- -- 70
2019-06-16 18:00:00 20.5 7 Nordeste 12 Nordeste 0 -- -- 71
2019-06-16 17:00:00 20.1 7 Este 12 Este 0 -- -- 73
2019-06-16 16:00:00 20.1 7 Nordeste 18 Este 0 -- -- 72
2019-06-16 15:00:00 20.2 12 Este 18 Este 0 -- -- 71
2019-06-16 14:00:00 18.9 10 Este 18 Este 0 -- -- 75
2019-06-16 13:00:00 17.6 13 Nordeste 19 Nordeste 0 -- -- 78
2019-06-16 12:00:00 17.4 13 Nordeste 18 Este 0 -- -- 78
2019-06-16 11:00:00 17.3 12 Nordeste 18 Este 0 -- -- 78
2019-06-16 10:00:00 17.7 10 Este 16 Este 0 -- -- 75
2019-06-16 09:00:00 16.1 8 Este 14 Este 0 -- -- 79
2019-06-16 08:00:00 14.6 6 Este 13 Este 0 -- -- 85
2019-06-16 07:00:00 12.9 6 Sudeste 14 Sudeste 0 -- -- 87
2019-06-16 06:00:00 12.8 5 Sudeste 10 Sudeste 0 -- -- 85
2019-06-16 05:00:00 13.1 6 Sur 9 Sur 0 -- -- 82
2019-06-16 04:00:00 13.1 5 Sur 7 Sur 0 -- -- 81
2019-06-16 03:00:00 13.4 3 Sur 8 Sur 0 -- -- 83
2019-06-16 02:00:00 13.5 5 Sur 10 Sur 0 -- -- 83
2019-06-16 01:00:00 13.7 6 Sur 9 Sur 0 -- -- 80
2019-06-16 00:00:00 14 3 Sudeste 5 Sudeste 0 -- -- 79
2019-06-15 23:00:00 14.6 0 Calma 5 Norte 0 -- -- 77
2019-06-15 22:00:00 15.8 0 Calma 6 Nordeste 0 -- -- 71
2019-06-15 21:00:00 17.8 2 Nordeste 8 Nordeste 0 -- -- 66
2019-06-15 20:00:00 19.5 5 Este 10 Este 0 -- -- 61
2019-06-15 19:00:00 19 6 Este 12 Este 0 -- -- 61
2019-06-15 18:00:00 19.2 6 Nordeste 13 Nordeste 0 -- -- 62
2019-06-15 17:00:00 18.8 7 Nordeste 13 Este 0 -- -- 61
2019-06-15 16:00:00 18.7 8 Nordeste 13 Este 0 -- -- 64
2019-06-15 15:00:00 18 7 Nordeste 12 Nordeste 0 -- -- 65
2019-06-15 14:00:00 18.1 9 Nordeste 15 Este 0 -- -- 62
2019-06-15 13:00:00 18 8 Nordeste 15 Este 0 -- -- 62
2019-06-15 12:00:00 17.6 9 Este 14 Nordeste 0 -- -- 67
2019-06-15 11:00:00 16.6 7 Nordeste 13 Nordeste 0 -- -- 68
2019-06-15 10:00:00 16.3 5 Este 9 Este 0 -- -- 75
2019-06-15 09:00:00 15.1 3 Sudoeste 10 Sur 0 -- -- 76
2019-06-15 08:00:00 13.3 8 Sudoeste 12 Sudoeste 0 -- -- 83
2019-06-15 07:00:00 12.1 8 Sudoeste 15 Sudoeste 0 -- -- 87
2019-06-15 06:00:00 12.3 12 Sudoeste 17 Sudoeste 0 -- -- 87
2019-06-15 05:00:00 12.1 10 Sudoeste 14 Sudoeste 0 -- -- 89
2019-06-15 04:00:00 11.9 9 Oeste 15 Oeste 0 -- -- 92
2019-06-15 03:00:00 12.4 8 Oeste 14 Oeste 0 -- -- 91
2019-06-15 02:00:00 12.7 9 Oeste 14 Oeste 0 -- -- 92
2019-06-15 01:00:00 13 7 Oeste 13 Oeste 0 -- -- 93
2019-06-15 00:00:00 12.9 10 Oeste 15 Oeste 0 -- -- 94
2019-06-14 23:00:00 12.7 7 Oeste 10 Oeste 0 -- -- 94
2019-06-14 22:00:00 12.5 6 Sudoeste 11 Oeste 0 -- -- 96
2019-06-14 21:00:00 12.8 8 Noroeste 17 Oeste 0.8 -- -- 95
2019-06-14 20:00:00 13.4 4 Noroeste 14 Nordeste 0 -- -- 94
2019-06-14 19:00:00 14 4 Noroeste 23 Oeste 0 -- -- 91
2019-06-14 18:00:00 15.5 4 Noroeste 10 Noroeste 0 -- -- 85
2019-06-14 17:00:00 14.7 4 Noroeste 10 Noroeste 0 -- -- 88
2019-06-14 16:00:00 14.3 2 Noroeste 7 Noroeste 0 -- -- 90
2019-06-14 15:00:00 14.5 2 Norte 17 Este 0 -- -- 86
2019-06-14 14:00:00 15 6 Nordeste 14 Nordeste 0 -- -- 83
2019-06-14 13:00:00 14.9 2 Noroeste 8 Nordeste 0 -- -- 82
2019-06-14 12:00:00 15.3 4 Nordeste 7 Norte 0 -- -- 81
2019-06-14 11:00:00 15 3 Nordeste 9 Nordeste 0 -- -- 81
2019-06-14 10:00:00 14.8 5 Este 11 Este 0 -- -- 82
2019-06-14 09:00:00 13.9 4 Este 8 Este 0 -- -- 86
2019-06-14 08:00:00 13.3 5 Nordeste 9 Este 0 -- -- 88
2019-06-14 07:00:00 11.7 3 Sudeste 8 Sudeste 0 -- -- 89
2019-06-14 06:00:00 11.9 4 Sudeste 8 Sudeste 0 -- -- 90
2019-06-14 05:00:00 12.3 3 Sur 8 Sur 0 -- -- 89
2019-06-14 04:00:00 12.6 5 Sur -- -- 0 -- -- 89
2019-06-14 03:00:00 13 0 Calma 5 Sudoeste 0 -- -- 88
2019-06-14 02:00:00 12.9 3 Sudoeste 6 Oeste 0 -- -- 89
2019-06-14 01:00:00 13.2 3 Oeste 10 Oeste 0 -- -- 88
2019-06-14 00:00:00 13.3 7 Oeste 13 Oeste 0 -- -- 86
2019-06-13 23:00:00 13.5 7 Oeste 21 Oeste 0 -- -- 84
2019-06-13 22:00:00 14 11 Oeste 23 Noroeste 0 -- -- 82
2019-06-13 21:00:00 14.2 9 Noroeste 23 Noroeste 0 -- -- 83
2019-06-13 20:00:00 14.5 12 Noroeste 21 Noroeste 0 -- -- 83
2019-06-13 19:00:00 15.1 6 Noroeste 14 Oeste 0 -- -- 81
2019-06-13 18:00:00 15.5 5 Noroeste 11 Noroeste 0 -- -- 78
2019-06-13 17:00:00 16 4 Noroeste 20 Norte 0 -- -- 75
2019-06-13 16:00:00 15.6 10 Nordeste 19 Nordeste 0 -- -- 77
2019-06-13 15:00:00 16.4 8 Nordeste 18 Nordeste 0 -- -- 73
2019-06-13 14:00:00 17.2 10 Nordeste 17 Nordeste 0 -- -- 71
2019-06-13 13:00:00 16.9 8 Nordeste 14 Nordeste 0 -- -- 73
2019-06-13 12:00:00 15.7 8 Nordeste 13 Nordeste 0 -- -- 76
2019-06-13 11:00:00 15.9 8 Nordeste 12 Nordeste 0 -- -- 75
2019-06-13 10:00:00 14.9 6 Nordeste 11 Nordeste 0 -- -- 77
2019-06-13 09:00:00 14.4 5 Nordeste 8 Norte 0 -- -- 77
2019-06-13 08:00:00 13.3 4 Nordeste 7 Nordeste 0 -- -- 85
2019-06-13 07:00:00 11.6 3 Sudoeste 6 Sudoeste 0 -- -- 87
2019-06-13 06:00:00 11.3 3 Sudoeste 5 Sudoeste 0 -- -- 86
2019-06-13 05:00:00 11.1 2 Sudeste 5 Sur 0 -- -- 87
2019-06-13 04:00:00 11.3 3 Sur 5 Sur 0 -- -- 85
2019-06-13 03:00:00 11.6 0 Calma 4 Sur 0 -- -- 84
2019-06-13 02:00:00 11.9 3 Sur 8 Sur 0 -- -- 84
2019-06-13 01:00:00 12.1 0 Calma 6 Sudoeste 0 -- -- 82
2019-06-13 00:00:00 12.3 5 Sudoeste 6 Oeste 0 -- -- 83
2019-06-12 23:00:00 12.9 0 Calma 7 Oeste 0 -- -- 82
2019-06-12 22:00:00 13.2 3 Oeste 14 Norte 0 -- -- 80
2019-06-12 21:00:00 14.1 2 Noroeste 14 Noroeste 0 -- -- 78
2019-06-12 20:00:00 15.3 5 Noroeste 26 Oeste 0 -- -- 74
2019-06-12 19:00:00 14.8 17 Noroeste 35 Noroeste 0 -- -- 74
2019-06-12 18:00:00 14.4 21 Noroeste 42 Noroeste 0 -- -- 76
2019-06-12 17:00:00 16.3 16 Noroeste 37 Oeste 0 -- -- 70
2019-06-12 16:00:00 16.5 19 Noroeste 44 Noroeste 0 -- -- 71
2019-06-12 15:00:00 16.9 20 Noroeste 39 Noroeste 0 -- -- 72
2019-06-12 14:00:00 16.5 14 Noroeste 23 Oeste 0 -- -- 69
2019-06-12 13:00:00 16.1 14 Oeste 39 Sudoeste 0 -- -- 60
2019-06-12 12:00:00 16.7 22 Oeste 35 Sudoeste 0 -- -- 50
2019-06-12 11:00:00 14.3 20 Oeste 33 Oeste 0 -- -- 56
2019-06-12 10:00:00 13.4 22 Oeste 38 Sudoeste 0 -- -- 57
2019-06-12 09:00:00 12.9 17 Oeste 41 Oeste 0 -- -- 60
2019-06-12 08:00:00 12.5 20 Oeste 34 Oeste 0 -- -- 60
2019-06-12 07:00:00 12.4 20 Oeste 43 Sudoeste 0 -- -- 61
2019-06-12 06:00:00 12 28 Oeste 45 Sudoeste 0 -- -- 65
2019-06-12 05:00:00 12.3 21 Oeste 51 Sudoeste 0 -- -- 64
2019-06-12 04:00:00 12 14 Oeste 42 Sudoeste 0 -- -- 65
2019-06-12 03:00:00 12.2 28 Oeste 51 Oeste 0 -- -- 68
2019-06-12 02:00:00 12.5 29 Oeste 45 Oeste 0 -- -- 70
2019-06-12 01:00:00 12.6 23 Oeste 45 Oeste 0 -- -- 70
2019-06-12 00:00:00 12.7 22 Oeste 46 Oeste 0 -- -- 72
2019-06-11 23:00:00 12.5 24 Oeste 41 Oeste 0 -- -- 73
2019-06-11 22:00:00 12.6 15 Oeste 37 Oeste 0 -- -- 75
2019-06-11 21:00:00 14.2 18 Oeste 35 Oeste 0 -- -- 69
2019-06-11 20:00:00 15.6 12 Oeste 30 Sudoeste 0 -- -- 67
2019-06-11 19:00:00 15.6 15 Oeste 31 Oeste 0 -- -- 70
2019-06-11 18:00:00 13.9 19 Oeste 41 Oeste 0.2 -- -- 83
2019-06-11 17:00:00 14.1 24 Noroeste 42 Oeste 0 -- -- 71
2019-06-11 16:00:00 15.2 22 Noroeste 49 Noroeste 0 -- -- 71
2019-06-11 15:00:00 14 17 Oeste 35 Oeste 0 -- -- 79
2019-06-11 14:00:00 12.3 13 Oeste 36 Oeste 0.4 -- -- 84
2019-06-11 13:00:00 13.9 22 Oeste 39 Oeste 0.2 -- -- 79
2019-06-11 12:00:00 12 15 Oeste 29 Sudoeste 0.8 -- -- 86
2019-06-11 11:00:00 12.1 21 Oeste 33 Oeste 0 -- -- 81
2019-06-11 10:00:00 11 21 Oeste 37 Oeste 0.8 -- -- 88
2019-06-11 09:00:00 12.2 16 Oeste 32 Oeste 0 -- -- 85
2019-06-11 08:00:00 10.9 17 Oeste 32 Sudoeste 0.2 -- -- 90
2019-06-11 07:00:00 9.8 14 Oeste 27 Oeste 0.2 -- -- 93
2019-06-11 06:00:00 10 15 Oeste 26 Oeste 0.8 -- -- 93
2019-06-11 05:00:00 10.2 11 Oeste 31 Oeste 1.4 -- -- 92
2019-06-11 04:00:00 10.4 16 Sudoeste 26 Sudoeste 0.2 -- -- 91
2019-06-11 03:00:00 10.5 8 Oeste 12 Oeste 1 -- -- 93
2019-06-11 02:00:00 10.8 0 Calma 14 Sudoeste 1 -- -- 91
2019-06-11 01:00:00 10.9 11 Sudoeste 15 Sudoeste 0.8 -- -- 89
2019-06-11 00:00:00 11.5 8 Sudoeste 12 Sudoeste 0.2 -- -- 87
2019-06-10 23:00:00 12.1 9 Sudoeste 15 Sudoeste 0 -- -- 84
2019-06-10 22:00:00 12.4 10 Sudoeste 16 Oeste 0 -- -- 83
2019-06-10 21:00:00 13.3 6 Oeste 13 Noroeste 0 -- -- 78
2019-06-10 20:00:00 13.5 5 Noroeste 10 Norte 0 -- -- 77
2019-06-10 19:00:00 13.9 5 Noroeste 12 Noroeste 0 -- -- 75
2019-06-10 18:00:00 14.5 5 Noroeste 13 Oeste 0 -- -- 73
2019-06-10 17:00:00 15.4 5 Noroeste 13 Oeste 0 -- -- 71
2019-06-10 16:00:00 16.8 5 Noroeste 14 Noroeste 0 -- -- 66
2019-06-10 15:00:00 15.6 5 Noroeste 19 Noroeste 0 -- -- 71
2019-06-10 14:00:00 16.8 7 Noroeste 16 Noroeste 0 -- -- 68
2019-06-10 13:00:00 16.4 6 Noroeste 13 Noroeste 0 -- -- 70
2019-06-10 12:00:00 15.8 5 Noroeste 15 Norte 0 -- -- 68
2019-06-10 11:00:00 15.2 6 Noroeste 19 Oeste 0 -- -- 71
2019-06-10 10:00:00 14.9 6 Noroeste 15 Noroeste 0 -- -- 73
2019-06-10 09:00:00 14.4 5 Noroeste 12 Oeste 0 -- -- 74
2019-06-10 08:00:00 12.7 6 Oeste 17 Noroeste 0 -- -- 82
2019-06-10 07:00:00 11.7 6 Noroeste 14 Noroeste 0 -- -- 87
2019-06-10 06:00:00 11.6 6 Oeste 15 Oeste 0 -- -- 89
2019-06-10 05:00:00 11.7 6 Oeste 15 Oeste 0 -- -- 88
2019-06-10 04:00:00 11.7 9 Oeste 16 Oeste 0 -- -- 88
2019-06-10 03:00:00 12.1 12 Oeste 20 Oeste 0 -- -- 89
2019-06-10 02:00:00 12.4 6 Noroeste 18 Noroeste 0 -- -- 90
2019-06-10 01:00:00 12.4 12 Oeste 23 Oeste 0 -- -- 92
2019-06-10 00:00:00 12.6 12 Oeste 21 Oeste 0 -- -- 94
2019-06-09 23:00:00 12.7 4 Oeste 16 Noroeste 0.4 -- -- 93
2019-06-09 22:00:00 13 6 Noroeste 27 Noroeste 0.4 -- -- 93
2019-06-09 21:00:00 13.6 6 Noroeste 18 Norte 0 -- -- 91
2019-06-09 20:00:00 13.8 7 Noroeste 24 Norte 0 -- -- 91
2019-06-09 19:00:00 14.2 6 Noroeste 21 Noroeste 0 -- -- 91
2019-06-09 18:00:00 14.9 7 Noroeste 21 Norte 0 -- -- 89
2019-06-09 17:00:00 15 6 Noroeste 36 Oeste 0 -- -- 89
2019-06-09 16:00:00 15.7 21 Noroeste 39 Oeste 0 -- -- 87
2019-06-09 15:00:00 15.2 19 Noroeste 33 Oeste 0 -- -- 88
2019-06-09 14:00:00 15.6 13 Noroeste 29 Noroeste 0 -- -- 86
2019-06-09 13:00:00 17 9 Noroeste 17 Noroeste 0 -- -- 84
2019-06-09 12:00:00 17.5 5 Noroeste 12 Oeste 0 -- -- 80
2019-06-09 11:00:00 17.9 5 Norte 13 Oeste 0 -- -- 77
2019-06-09 10:00:00 15.9 6 Oeste 13 Oeste 0 -- -- 83
2019-06-09 09:00:00 14.7 6 Oeste 18 Oeste 0 -- -- 85
2019-06-09 08:00:00 13.9 13 Sudoeste 18 Oeste 0 -- -- 87
2019-06-09 07:00:00 13.5 11 Sudoeste 18 Sudoeste 0 -- -- 87
2019-06-09 06:00:00 13.2 12 Sudoeste 23 Oeste 0 -- -- 88
2019-06-09 05:00:00 13.5 13 Oeste 21 Oeste 0 -- -- 86
2019-06-09 04:00:00 13.7 15 Oeste 27 Oeste 0 -- -- 85
2019-06-09 03:00:00 13.8 10 Oeste 18 Oeste 0 -- -- 84
2019-06-09 02:00:00 13.9 12 Oeste 18 Oeste 0 -- -- 84
2019-06-09 01:00:00 14 8 Oeste 12 Oeste 0 -- -- 83
2019-06-09 00:00:00 14.1 7 Oeste 10 Oeste 0 -- -- 83
2019-06-08 23:00:00 14.3 0 Calma 8 Noroeste 0 -- -- 80
2019-06-08 22:00:00 14.6 3 Noroeste 9 Norte 0 -- -- 80
2019-06-08 21:00:00 15.1 4 Noroeste 10 Norte 0 -- -- 79
2019-06-08 20:00:00 16 4 Nordeste 12 Nordeste 0 -- -- 73
2019-06-08 19:00:00 16.4 5 Nordeste 17 Nordeste 0 -- -- 71
2019-06-08 18:00:00 16.5 9 Nordeste 18 Nordeste 0 -- -- 70
2019-06-08 17:00:00 17.4 11 Nordeste 18 Nordeste 0 -- -- 68
2019-06-08 16:00:00 17.7 10 Nordeste 20 Nordeste 0 -- -- 69
2019-06-08 15:00:00 18 10 Nordeste 20 Este 0 -- -- 64
2019-06-08 14:00:00 17.9 10 Nordeste 19 Nordeste 0 -- -- 65
2019-06-08 13:00:00 17.3 13 Nordeste 25 Nordeste 0 -- -- 63
2019-06-08 12:00:00 17 13 Este 22 Nordeste 0 -- -- 67
2019-06-08 11:00:00 16.7 11 Este 16 Este 0 -- -- 66
2019-06-08 10:00:00 16.5 9 Este 14 Este 0 -- -- 64
2019-06-08 09:00:00 15 4 Nordeste 8 Nordeste 0 -- -- 71
2019-06-08 08:00:00 13 0 Calma 8 Sur 0 -- -- 74
2019-06-08 07:00:00 11.9 5 Sur 7 Sur 0 -- -- 72
2019-06-08 06:00:00 11.9 2 Sur 5 Sur 0 -- -- 71
2019-06-08 05:00:00 11.9 0 Calma 6 Sudoeste 0 -- -- 72
2019-06-08 04:00:00 12.2 4 Sudoeste 6 Sudoeste 0 -- -- 71
2019-06-08 03:00:00 12.1 5 Sudoeste 12 Sudoeste 0 -- -- 72
2019-06-08 02:00:00 12.2 8 Sudoeste 11 Sudoeste 0 -- -- 73
2019-06-08 01:00:00 12.4 6 Sudoeste 9 Sudoeste 0 -- -- 71
2019-06-08 00:00:00 12.5 6 Sudoeste 11 Sudoeste 0 -- -- 70
2019-06-07 23:00:00 12.7 6 Oeste 15 Oeste 0 -- -- 71
2019-06-07 22:00:00 13.4 10 Oeste 21 Oeste 0 -- -- 67
2019-06-07 21:00:00 14.2 11 Oeste 24 Noroeste 0 -- -- 64
2019-06-07 20:00:00 15 12 Noroeste 31 Noroeste 0 -- -- 67
2019-06-07 19:00:00 16 12 Noroeste 34 Noroeste 0 -- -- 66
2019-06-07 18:00:00 15.6 23 Noroeste 59 Noroeste 0 -- -- 61
2019-06-07 17:00:00 16.2 29 Noroeste 54 Oeste 0 -- -- 60
2019-06-07 16:00:00 16.5 35 Noroeste 60 Oeste 0 -- -- 59
2019-06-07 15:00:00 16.4 32 Noroeste 58 Oeste 0 -- -- 59
2019-06-07 14:00:00 16.4 30 Noroeste 58 Oeste 0 -- -- 56
2019-06-07 13:00:00 17.1 26 Noroeste 45 Oeste 0 -- -- 57
2019-06-07 12:00:00 16.8 17 Noroeste 34 Oeste 0 -- -- 61
2019-06-07 11:00:00 17.6 23 Oeste 39 Oeste 0 -- -- 46
2019-06-07 10:00:00 16.9 21 Oeste 39 Oeste 0 -- -- 47
2019-06-07 09:00:00 15.8 16 Oeste 45 Oeste 0 -- -- 49
2019-06-07 08:00:00 14.5 21 Oeste 56 Oeste 0 -- -- 52
2019-06-07 07:00:00 13.9 32 Sudoeste 60 Sudoeste 0.2 -- -- 54
2019-06-07 06:00:00 13.4 30 Sudoeste 53 Sudoeste 0 -- -- 58
2019-06-07 05:00:00 13.5 26 Oeste 53 Sudoeste 0 -- -- 59
2019-06-07 04:00:00 14.1 25 Oeste 64 Sudoeste 0.4 -- -- 59
2019-06-07 03:00:00 14.9 17 Sudoeste 59 Sudoeste 0 -- -- 60
2019-06-07 02:00:00 18.1 32 Oeste 53 Oeste 0 -- -- 51
2019-06-07 01:00:00 21.2 13 Sudoeste 39 Sur 0 -- -- 44
2019-06-07 00:00:00 22.1 12 Sudoeste 33 Sudoeste 0 -- -- 38
2019-06-06 23:00:00 24.3 13 Sudoeste 30 Sur 0 -- -- 28
2019-06-06 22:00:00 24.3 8 Sudoeste 28 Sur 0 -- -- 28
2019-06-06 21:00:00 24.2 8 Sudeste 22 Sur 0 -- -- 31
2019-06-06 20:00:00 24.6 10 Sur 47 Sur 0 -- -- 32
2019-06-06 19:00:00 24.7 9 Sur 42 Sur 0 -- -- 31
2019-06-06 18:00:00 24.6 11 Sur 32 Sudeste 0 -- -- 38
2019-06-06 17:00:00 22 4 Oeste 18 Este 0 -- -- 59
2019-06-06 16:00:00 21.7 8 Este 20 Este 0 -- -- 71
2019-06-06 15:00:00 19.9 9 Este 21 Este 0 -- -- 72
2019-06-06 14:00:00 19.5 12 Este 23 Este 0 -- -- 69
2019-06-06 13:00:00 18.7 12 Este 23 Nordeste 0 -- -- 70
2019-06-06 12:00:00 17.7 10 Este 23 Este 0 -- -- 69
2019-06-06 11:00:00 17 10 Este 24 Este 0 -- -- 69
2019-06-06 10:00:00 16.3 9 Este 19 Sudeste 0 -- -- 67
2019-06-06 09:00:00 14.2 6 Este 11 Este 0 -- -- 71
2019-06-06 08:00:00 12.2 2 Sudeste 4 Sudeste 0 -- -- 73
2019-06-06 07:00:00 11.6 0 Calma 4 Sudeste 0 -- -- 72
2019-06-06 06:00:00 11.5 2 Sudoeste 14 Sudoeste 0 -- -- 72
2019-06-06 05:00:00 11.5 10 Sudoeste 17 Sudoeste 0 -- -- 75
2019-06-06 04:00:00 11.8 10 Sudoeste 17 Sudoeste 0 -- -- 73
2019-06-06 03:00:00 12 12 Sudoeste 16 Sudoeste 0 -- -- 73
2019-06-06 02:00:00 12.2 12 Sudoeste 18 Sudoeste 0 -- -- 73
2019-06-06 01:00:00 12.2 10 Sudoeste 15 Sudoeste 0 -- -- 75
2019-06-06 00:00:00 12.2 10 Sudoeste 17 Oeste 0 -- -- 74
2019-06-05 23:00:00 12 9 Sudoeste 17 Oeste 0 -- -- 74
2019-06-05 22:00:00 12.3 9 Oeste 19 Oeste 0 -- -- 74
2019-06-05 21:00:00 13.6 14 Oeste 24 Oeste 0 -- -- 70
2019-06-05 20:00:00 14.6 7 Oeste 32 Oeste 0 -- -- 71
2019-06-05 19:00:00 16.4 11 Oeste 40 Noroeste 0 -- -- 70
2019-06-05 18:00:00 16.5 13 Noroeste 31 Oeste 0 -- -- 68
2019-06-05 17:00:00 16 19 Oeste 35 Oeste 0 -- -- 75
2019-06-05 16:00:00 14.2 19 Noroeste 36 Oeste 0 -- -- 78
2019-06-05 15:00:00 14.3 16 Oeste 32 Oeste 0.4 -- -- 90
2019-06-05 14:00:00 12.5 14 Oeste 28 Noroeste 5 -- -- 94
2019-06-05 13:00:00 11.9 17 Oeste 31 Sudoeste 2.8 -- -- 90
2019-06-05 12:00:00 12.9 17 Oeste 31 Oeste 0 -- -- 89
2019-06-05 11:00:00 11.8 18 Oeste 31 Oeste 0.8 -- -- 93
2019-06-05 10:00:00 11.1 12 Oeste 21 Oeste 2 -- -- 95
2019-06-05 09:00:00 11 14 Oeste 21 Sudoeste 5.4 -- -- 94
2019-06-05 08:00:00 11.2 11 Oeste 27 Oeste 2.6 -- -- 94
2019-06-05 07:00:00 11.5 17 Oeste 27 Oeste 1.6 -- -- 94
2019-06-05 06:00:00 12.1 11 Oeste 19 Oeste 0.2 -- -- 92
2019-06-05 05:00:00 12.4 6 Oeste 12 Sudoeste 0 -- -- 90
2019-06-05 04:00:00 12.3 5 Sudoeste 18 Sudoeste 0 -- -- 92
2019-06-05 03:00:00 12.9 2 Sudeste 9 Noroeste 0.2 -- -- 92
2019-06-05 02:00:00 13.2 4 Oeste 10 Oeste 0 -- -- 90
2019-06-05 01:00:00 13.4 7 Sudoeste 13 Oeste 0 -- -- 87
2019-06-05 00:00:00 13.4 9 Oeste 15 Oeste 0 -- -- 89
2019-06-04 23:00:00 14 3 Sudoeste 13 Noroeste 0 -- -- 81
2019-06-04 22:00:00 14.8 5 Oeste 19 Oeste 0 -- -- 78
2019-06-04 21:00:00 15.2 12 Noroeste 28 Oeste 0 -- -- 73
2019-06-04 20:00:00 15.2 15 Oeste 43 Noroeste 0 -- -- 74
2019-06-04 19:00:00 15.1 21 Oeste 38 Noroeste 0 -- -- 73
2019-06-04 18:00:00 15.4 24 Noroeste 46 Noroeste 0 -- -- 83
2019-06-04 17:00:00 19.1 3 Noroeste 9 Noroeste 0 -- -- 76
2019-06-04 16:00:00 18.8 4 Noroeste 13 Oeste 0 -- -- 81
2019-06-04 15:00:00 19.2 5 Noroeste 17 Noroeste 0 -- -- 81
2019-06-04 14:00:00 18.8 6 Noroeste 27 Noroeste 0 -- -- 85
2019-06-04 13:00:00 18.3 9 Noroeste 20 Noroeste 0 -- -- 87
2019-06-04 12:00:00 18.8 5 Noroeste 16 Noroeste 0 -- -- 84
2019-06-04 11:00:00 18.9 5 Noroeste 13 Noroeste 0 -- -- 84
2019-06-04 10:00:00 18.3 5 Noroeste 12 Noroeste 0 -- -- 86
2019-06-04 09:00:00 18 4 Noroeste 9 Nordeste 0 -- -- 85
2019-06-04 08:00:00 17 4 Este 6 Este 0 -- -- 90
2019-06-04 07:00:00 15.4 4 Sudoeste 6 Sudoeste 0 -- -- 91
2019-06-04 06:00:00 15.7 3 Sudoeste 6 Sudoeste 0 -- -- 90
2019-06-04 05:00:00 15.9 3 Oeste 9 Sudoeste 0 -- -- 88
2019-06-04 04:00:00 16.8 5 Sudeste 8 Sudeste 0 -- -- 88
2019-06-04 03:00:00 17.1 4 Sudeste 9 Sudoeste 0 -- -- 89
2019-06-04 02:00:00 17 0 Calma 5 Sudoeste 0 -- -- 89
2019-06-04 01:00:00 17.1 3 Sudoeste 6 Sudoeste 0 -- -- 88
2019-06-04 00:00:00 17.3 4 Oeste 6 Oeste 0 -- -- 87
2019-06-03 23:00:00 17.4 2 Noroeste 6 Norte 0 -- -- 87
2019-06-03 22:00:00 17.7 0 Calma 5 Norte 0 -- -- 86
2019-06-03 21:00:00 18 0 Calma 9 Norte 0 -- -- 84
2019-06-03 20:00:00 19.2 3 Norte 13 Nordeste 0 -- -- 78
2019-06-03 19:00:00 20.2 5 Nordeste 13 Nordeste 0 -- -- 74
2019-06-03 18:00:00 20.6 5 Nordeste 11 Este 0 -- -- 69
2019-06-03 17:00:00 20.5 8 Este 12 Nordeste 0 -- -- 69
2019-06-03 16:00:00 20.2 7 Nordeste 14 Este 0 -- -- 73
2019-06-03 15:00:00 20.2 10 Nordeste 14 Este 0 -- -- 73
2019-06-03 14:00:00 19.4 7 Nordeste 14 Nordeste 0 -- -- 76
2019-06-03 13:00:00 19.5 7 Nordeste 14 Este 0 -- -- 76
2019-06-03 12:00:00 19.4 9 Este 13 Este 0 -- -- 78
2019-06-03 11:00:00 18.5 5 Nordeste 10 Noroeste 0 -- -- 76
2019-06-03 10:00:00 16.8 5 Oeste 16 Oeste 0 -- -- 82
2019-06-03 09:00:00 15.8 12 Oeste 22 Oeste 0 -- -- 80
2019-06-03 08:00:00 16 3 Sur 8 Sur 0 -- -- 73
2019-06-03 07:00:00 15.3 0 Calma 4 Sur 0 -- -- 82
2019-06-03 06:00:00 15.1 3 Sur 6 Sur 0 -- -- 84
2019-06-03 05:00:00 15.4 0 Calma 8 Oeste 0 -- -- 87
2019-06-03 04:00:00 15.4 0 Calma 8 Sudeste 0 -- -- 74
2019-06-03 03:00:00 15.8 5 Sur 8 Sur 0 -- -- 73
2019-06-03 02:00:00 16.2 0 Calma 13 Oeste 0 -- -- 74
2019-06-03 01:00:00 17.3 0 Calma 8 Sur 0 -- -- 56
2019-06-03 00:00:00 17.3 3 Sudoeste 6 Oeste 0 -- -- 58
2019-06-02 23:00:00 17.6 4 Oeste 14 Oeste 0 -- -- 54
2019-06-02 22:00:00 16.9 9 Oeste 15 Noroeste 0 -- -- 76
2019-06-02 21:00:00 18.3 9 Noroeste 23 Oeste 0 -- -- 73
2019-06-02 20:00:00 18.6 14 Noroeste 20 Oeste 0 -- -- 82
2019-06-02 19:00:00 20.9 2 Noroeste 12 Noroeste 0 -- -- 75
2019-06-02 18:00:00 20.3 10 Noroeste 15 Oeste 0 -- -- 80
2019-06-02 17:00:00 21.8 4 Norte 11 Norte 0 -- -- 73
2019-06-02 16:00:00 22.2 5 Norte 10 Nordeste 0 -- -- 72
2019-06-02 15:00:00 23.3 6 Este 14 Este 0 -- -- 59
2019-06-02 14:00:00 23.1 9 Este 15 Este 0 -- -- 55
2019-06-02 13:00:00 22.7 6 Este 10 Este 0 -- -- 53
2019-06-02 12:00:00 22.3 5 Nordeste 14 Nordeste 0 -- -- 62
2019-06-02 11:00:00 24.2 3 Nordeste 5 Nordeste 0 -- -- 57
2019-06-02 10:00:00 25 0 Calma 7 Este 0 -- -- 53
2019-06-02 09:00:00 22.1 0 Calma 8 Nordeste 0 -- -- 59
2019-06-02 08:00:00 20.4 4 Este 15 Sudoeste 0 -- -- 59
2019-06-02 07:00:00 21 10 Sudoeste 17 Sudoeste 0 -- -- 46
2019-06-02 06:00:00 20.8 6 Oeste 20 Sudoeste 0 -- -- 47
2019-06-02 05:00:00 20.5 12 Sudoeste 20 Sudoeste 0 -- -- 48
2019-06-02 04:00:00 19.4 5 Sudoeste 10 Sudoeste 0 -- -- 56
2019-06-02 03:00:00 19.3 3 Sur 6 Norte 0 -- -- 65
2019-06-02 02:00:00 18.9 2 Norte 8 Noroeste 0 -- -- 70
2019-06-02 01:00:00 20.2 2 Este 13 Oeste 0 -- -- 63
2019-06-02 00:00:00 21.3 3 Noroeste 6 Noroeste 0 -- -- 56
2019-06-01 23:00:00 22.1 3 Noroeste 13 Oeste 0 -- -- 54
2019-06-01 22:00:00 20.9 8 Oeste 16 Noroeste 0 -- -- 66
2019-06-01 21:00:00 28.1 0 Calma 12 Este 0 -- -- 40
2019-06-01 20:00:00 29.5 8 Este 15 Este 0 -- -- 39
2019-06-01 19:00:00 29.5 10 Este 16 Este 0 -- -- 41
2019-06-01 18:00:00 29.1 11 Este 22 Este 0 -- -- 43
2019-06-01 17:00:00 28.4 14 Sudeste 21 Este 0 -- -- 45
2019-06-01 16:00:00 28 12 Sudeste 21 Este 0 -- -- 51
2019-06-01 15:00:00 27.8 16 Sudeste 22 Sudeste 0 -- -- 50
2019-06-01 14:00:00 28.8 12 Sudeste 16 Sudeste 0 -- -- 47
2019-06-01 13:00:00 29.6 7 Oeste 19 Sur 0 -- -- 40
2019-06-01 12:00:00 28.8 6 Sudoeste 16 Oeste 0 -- -- 42
2019-06-01 11:00:00 27.3 5 Sur 15 Oeste 0 -- -- 47
2019-06-01 10:00:00 25.2 8 Oeste 17 Oeste 0 -- -- 50
2019-06-01 09:00:00 23.6 6 Noroeste 12 Oeste 0 -- -- 51
2019-06-01 08:00:00 22.4 0 Calma 9 Oeste 0 -- -- 53
2019-06-01 07:00:00 19.7 3 Sur 8 Sur 0 -- -- 65
2019-06-01 06:00:00 19.2 0 Calma 4 Sur 0 -- -- 73
2019-06-01 05:00:00 19.5 0 Calma 4 Este 0 -- -- 74
2019-06-01 04:00:00 19.7 0 Calma 4 Sudeste 0 -- -- 72
2019-06-01 03:00:00 18.7 0 Calma 3 Sudoeste 0 -- -- 72
2019-06-01 02:00:00 18.5 0 Calma 4 Este 0 -- -- 72
2019-06-01 01:00:00 19.1 0 Calma 8 Sudeste 0 -- -- 71
2019-06-01 00:00:00 18.4 0 Calma 6 Sudeste 0 -- -- 73
2019-05-31 23:00:00 18.1 4 Sudeste 12 Sudeste 0 -- -- 76
2019-05-31 22:00:00 18.8 9 Sudeste 17 Sudeste 0 -- -- 74
2019-05-31 21:00:00 21.2 8 Sudeste 18 Este 0 -- -- 69
2019-05-31 20:00:00 22.8 12 Este 18 Sudeste 0 -- -- 64
2019-05-31 19:00:00 23.5 11 Este 20 Este 0 -- -- 61
2019-05-31 18:00:00 23.7 12 Este 21 Este 0 -- -- 62
2019-05-31 17:00:00 23.6 9 Este 16 Este 0 -- -- 63
2019-05-31 16:00:00 23.5 10 Este 17 Este 0 -- -- 64
2019-05-31 15:00:00 23.9 12 Este 21 Este 0 -- -- 63
2019-05-31 14:00:00 21.9 8 Este 18 Este 0 -- -- 66
2019-05-31 13:00:00 20.6 6 Este 14 Sudeste 0 -- -- 76
2019-05-31 12:00:00 20.5 9 Este 15 Este 0 -- -- 75
2019-05-31 11:00:00 19.5 8 Este 12 Este 0 -- -- 78
2019-05-31 10:00:00 18.6 6 Este 9 Nordeste 0 -- -- 75
2019-05-31 09:00:00 17.6 3 Este 8 Nordeste 0 -- -- 79
2019-05-31 08:00:00 16.1 4 Este 6 Este 0 -- -- 86
2019-05-31 07:00:00 14.6 0 Calma 3 Nordeste 0 -- -- 85
2019-05-31 06:00:00 14.9 0 Calma 2 Nordeste 0 -- -- 83
2019-05-31 05:00:00 15.2 0 Calma 5 Este 0 -- -- 82
2019-05-31 04:00:00 15.5 2 Oeste 5 Oeste 0 -- -- 81
2019-05-31 03:00:00 15.3 0 Calma 3 Este 0 -- -- 82
2019-05-31 02:00:00 15.6 3 Este 9 Sudeste 0 -- -- 81
2019-05-31 01:00:00 15.3 6 Sudeste 10 Sudeste 0 -- -- 86
2019-05-31 00:00:00 15.2 0 Calma 5 Sur 0 -- -- 89
2019-05-30 23:00:00 15.5 4 Sudeste 10 Sudeste 0 -- -- 87
2019-05-30 22:00:00 16 5 Sudeste 13 Sudeste 0 -- -- 86
2019-05-30 21:00:00 18.3 8 Sudeste 17 Sudeste 0 -- -- 76
2019-05-30 20:00:00 20.1 9 Este 12 Este 0 -- -- 70
2019-05-30 19:00:00 20.4 9 Este 14 Este 0 -- -- 66
2019-05-30 18:00:00 20.1 8 Este 14 Este 0 -- -- 71
2019-05-30 17:00:00 19.9 9 Este 13 Este 0 -- -- 68
2019-05-30 16:00:00 18.8 9 Este 17 Este 0 -- -- 72
2019-05-30 15:00:00 18.6 11 Este 18 Este 0 -- -- 73
2019-05-30 14:00:00 18.3 10 Este 18 Nordeste 0 -- -- 75
2019-05-30 13:00:00 17.2 9 Nordeste 15 Nordeste 0 -- -- 69
2019-05-30 12:00:00 17.8 8 Este 15 Nordeste 0 -- -- 64
2019-05-30 11:00:00 16.8 11 Este 15 Este 0 -- -- 67
2019-05-30 10:00:00 16.8 5 Este 10 Este 0 -- -- 63
2019-05-30 09:00:00 15.4 5 Nordeste 9 Sudeste 0 -- -- 68
2019-05-30 08:00:00 13.6 5 Este 8 Este 0 -- -- 77
2019-05-30 07:00:00 11.6 5 Sudeste 9 Sur 0 -- -- 74
2019-05-30 06:00:00 11.7 3 Sudeste 6 Sur 0 -- -- 75
2019-05-30 05:00:00 11.6 5 Sur 10 Este 0 -- -- 76
2019-05-30 04:00:00 11.9 6 Sudeste 12 Sudeste 0 -- -- 78
2019-05-30 03:00:00 11.9 6 Sudeste 11 Este 0 -- -- 84
2019-05-30 02:00:00 12.1 4 Sudeste 12 Este 0 -- -- 85
2019-05-30 01:00:00 12.1 5 Sudeste 9 Sudeste 0 -- -- 85
2019-05-30 00:00:00 12.5 3 Sudeste 5 Este 0 -- -- 87
2019-05-29 23:00:00 12.8 4 Este 8 Sur 0 -- -- 85
2019-05-29 22:00:00 13.7 5 Sur 9 Sudeste 0 -- -- 81
2019-05-29 21:00:00 16.5 5 Sudeste 11 Este 0 -- -- 73
2019-05-29 20:00:00 17.6 7 Este 11 Nordeste 0 -- -- 71
2019-05-29 19:00:00 16.5 5 Nordeste 11 Norte 0 -- -- 75
2019-05-29 18:00:00 16.5 6 Norte 12 Norte 0 -- -- 73
2019-05-29 17:00:00 16.6 6 Nordeste 13 Norte 0 -- -- 71
2019-05-29 16:00:00 16.5 6 Nordeste 10 Nordeste 0 -- -- 72
2019-05-29 15:00:00 16.6 5 Norte 12 Nordeste 0 -- -- 76
2019-05-29 14:00:00 16.3 7 Norte 12 Norte 0 -- -- 74
2019-05-29 13:00:00 15.6 4 Noroeste 11 Noroeste 0 -- -- 76
2019-05-29 12:00:00 15.4 4 Noroeste 12 Nordeste 0 -- -- 75
2019-05-29 11:00:00 15 7 Noroeste 17 Noroeste 0 -- -- 79
2019-05-29 10:00:00 14.4 4 Noroeste 13 Norte 0 -- -- 79
2019-05-29 09:00:00 14.2 4 Noroeste 12 Norte 0 -- -- 81
2019-05-29 08:00:00 13 4 Noroeste 23 Noroeste 0 -- -- 91
2019-05-29 07:00:00 11.8 15 Oeste 22 Oeste 0 -- -- 95
2019-05-29 06:00:00 11.8 15 Oeste 31 Noroeste 0.2 -- -- 95
2019-05-29 05:00:00 11.8 15 Oeste 25 Oeste 1.2 -- -- 92
2019-05-29 04:00:00 11.8 8 Sudoeste 33 Oeste 0 -- -- 90
2019-05-29 03:00:00 12.7 18 Oeste 27 Oeste 0 -- -- 88
2019-05-29 02:00:00 13 15 Oeste 24 Oeste 0 -- -- 85
2019-05-29 01:00:00 13 13 Noroeste 27 Oeste 0 -- -- 83
2019-05-29 00:00:00 13 16 Oeste 35 Oeste 0 -- -- 83
2019-05-28 23:00:00 13.2 17 Noroeste 32 Noroeste 0 -- -- 83
2019-05-28 22:00:00 13.2 17 Oeste 33 Norte 0 -- -- 82
2019-05-28 21:00:00 13.4 18 Noroeste 41 Noroeste 0 -- -- 82
2019-05-28 20:00:00 14 21 Noroeste 43 Noroeste 0 -- -- 79
2019-05-28 19:00:00 13.9 24 Noroeste 45 Noroeste 0 -- -- 80
2019-05-28 18:00:00 15.2 24 Noroeste 40 Noroeste 0 -- -- 75
2019-05-28 17:00:00 15.3 21 Noroeste 40 Noroeste 0 -- -- 76
2019-05-28 16:00:00 15 27 Noroeste 40 Oeste 0.2 -- -- 78
2019-05-28 15:00:00 14.1 22 Noroeste 37 Oeste 0 -- -- 83
2019-05-28 14:00:00 14.8 4 Noroeste 28 Oeste 0 -- -- 90
2019-05-28 13:00:00 12.9 18 Noroeste 37 Noroeste 1.4 -- -- 91
2019-05-28 12:00:00 15.6 14 Noroeste 33 Noroeste 0 -- -- 81
2019-05-28 11:00:00 14.6 10 Noroeste 28 Oeste 0 -- -- 81
2019-05-28 10:00:00 12.9 18 Oeste 31 Oeste 0 -- -- 84
2019-05-28 09:00:00 12.3 14 Oeste 27 Oeste 0.2 -- -- 89
2019-05-28 08:00:00 12.2 15 Oeste 24 Oeste 0 -- -- 84
2019-05-28 07:00:00 11.8 15 Oeste 25 Oeste 0 -- -- 86
2019-05-28 06:00:00 11.8 14 Oeste 30 Oeste 0 -- -- 86
2019-05-28 05:00:00 12 13 Oeste 24 Sudoeste 0 -- -- 85
2019-05-28 04:00:00 11.6 14 Oeste 23 Oeste 0 -- -- 86
2019-05-28 03:00:00 11.8 14 Oeste 26 Oeste 0 -- -- 85
2019-05-28 02:00:00 11.9 15 Oeste 28 Oeste 0 -- -- 86
2019-05-28 01:00:00 11.9 15 Oeste 23 Oeste 0 -- -- 88
2019-05-28 00:00:00 12.1 15 Oeste 25 Noroeste 0 -- -- 89